sensor_id;sensor_type;location;lat;lon;timestamp;pressure;altitude;pressure_sealevel;temperature;humidity
30724;BME280;17473;52.286;20.930;2022-07-29T00:01:08;100813.81;;;18.03;65.03
30724;BME280;17473;52.286;20.930;2022-07-29T00:03:45;100810.31;;;18.10;64.83
30724;BME280;17473;52.286;20.930;2022-07-29T00:06:13;100817.34;;;18.01;65.24
30724;BME280;17473;52.286;20.930;2022-07-29T00:08:40;100811.88;;;17.91;65.54
30724;BME280;17473;52.286;20.930;2022-07-29T00:11:07;100826.16;;;17.95;65.72
30724;BME280;17473;52.286;20.930;2022-07-29T00:13:35;100824.28;;;17.86;65.97
30724;BME280;17473;52.286;20.930;2022-07-29T00:16:02;100829.44;;;17.71;66.54
30724;BME280;17473;52.286;20.930;2022-07-29T00:18:31;100813.25;;;17.55;67.07
30724;BME280;17473;52.286;20.930;2022-07-29T00:20:59;100818.63;;;17.58;67.31
30724;BME280;17473;52.286;20.930;2022-07-29T00:23:26;100824.94;;;17.65;67.26
30724;BME280;17473;52.286;20.930;2022-07-29T00:25:53;100834.72;;;17.64;67.32
30724;BME280;17473;52.286;20.930;2022-07-29T00:28:20;100827.66;;;17.68;67.25
30724;BME280;17473;52.286;20.930;2022-07-29T00:30:47;100828.47;;;17.61;67.59
30724;BME280;17473;52.286;20.930;2022-07-29T00:33:14;100833.75;;;17.58;67.94
30724;BME280;17473;52.286;20.930;2022-07-29T00:35:42;100833.69;;;17.53;68.02
30724;BME280;17473;52.286;20.930;2022-07-29T00:38:18;100831.94;;;17.55;68.40
30724;BME280;17473;52.286;20.930;2022-07-29T00:40:46;100837.25;;;17.53;68.58
30724;BME280;17473;52.286;20.930;2022-07-29T00:43:14;100823.03;;;17.55;68.47
30724;BME280;17473;52.286;20.930;2022-07-29T00:45:42;100819.41;;;17.48;68.64
30724;BME280;17473;52.286;20.930;2022-07-29T00:48:09;100824.66;;;17.42;69.49
30724;BME280;17473;52.286;20.930;2022-07-29T00:50:37;100818.50;;;17.49;69.21
30724;BME280;17473;52.286;20.930;2022-07-29T00:53:07;100820.19;;;17.41;69.71
30724;BME280;17473;52.286;20.930;2022-07-29T00:55:34;100816.53;;;17.32;70.24
30724;BME280;17473;52.286;20.930;2022-07-29T00:58:02;100831.66;;;17.33;70.13
30724;BME280;17473;52.286;20.930;2022-07-29T01:00:29;100812.09;;;17.33;70.15
30724;BME280;17473;52.286;20.930;2022-07-29T01:02:57;100829.91;;;17.34;70.29
30724;BME280;17473;52.286;20.930;2022-07-29T01:05:27;100824.28;;;17.12;70.91
30724;BME280;17473;52.286;20.930;2022-07-29T01:08:16;100819.00;;;17.15;70.89
30724;BME280;17473;52.286;20.930;2022-07-29T01:10:44;100825.16;;;17.11;71.03
30724;BME280;17473;52.286;20.930;2022-07-29T01:13:13;100832.84;;;16.91;72.19
30724;BME280;17473;52.286;20.930;2022-07-29T01:15:47;100825.06;;;17.05;71.15
30724;BME280;17473;52.286;20.930;2022-07-29T01:18:28;100829.41;;;17.00;71.92
30724;BME280;17473;52.286;20.930;2022-07-29T01:29:36;100831.16;;;16.96;72.66
30724;BME280;17473;52.286;20.930;2022-07-29T01:32:11;100832.06;;;16.98;72.65
30724;BME280;17473;52.286;20.930;2022-07-29T01:35:15;100827.50;;;16.91;73.20
30724;BME280;17473;52.286;20.930;2022-07-29T01:37:47;100818.56;;;16.89;73.21
30724;BME280;17473;52.286;20.930;2022-07-29T01:40:41;100824.81;;;16.89;73.20
30724;BME280;17473;52.286;20.930;2022-07-29T01:43:15;100832.94;;;16.97;72.86
30724;BME280;17473;52.286;20.930;2022-07-29T01:45:56;100834.50;;;16.86;73.65
30724;BME280;17473;52.286;20.930;2022-07-29T01:51:16;100825.78;;;16.93;73.00
30724;BME280;17473;52.286;20.930;2022-07-29T01:54:02;100814.97;;;16.85;73.25
30724;BME280;17473;52.286;20.930;2022-07-29T01:56:31;100829.19;;;16.86;73.74
30724;BME280;17473;52.286;20.930;2022-07-29T01:59:02;100827.38;;;16.82;73.80
30724;BME280;17473;52.286;20.930;2022-07-29T02:01:33;100817.50;;;16.78;73.77
30724;BME280;17473;52.286;20.930;2022-07-29T02:04:07;100828.16;;;16.76;74.07
30724;BME280;17473;52.286;20.930;2022-07-29T02:06:39;100835.28;;;16.76;74.42
30724;BME280;17473;52.286;20.930;2022-07-29T02:09:07;100829.09;;;16.81;74.19
30724;BME280;17473;52.286;20.930;2022-07-29T02:11:36;100836.09;;;16.73;74.46
30724;BME280;17473;52.286;20.930;2022-07-29T02:14:05;100834.38;;;16.77;74.32
30724;BME280;17473;52.286;20.930;2022-07-29T02:16:36;100822.59;;;16.61;74.88
30724;BME280;17473;52.286;20.930;2022-07-29T02:19:05;100811.03;;;16.60;74.68
30724;BME280;17473;52.286;20.930;2022-07-29T02:21:34;100828.94;;;16.67;74.91
30724;BME280;17473;52.286;20.930;2022-07-29T02:24:03;100830.53;;;16.59;75.15
30724;BME280;17473;52.286;20.930;2022-07-29T02:26:32;100816.25;;;16.54;75.13
30724;BME280;17473;52.286;20.930;2022-07-29T02:29:00;100824.19;;;16.49;75.27
30724;BME280;17473;52.286;20.930;2022-07-29T02:31:33;100825.03;;;16.48;75.58
30724;BME280;17473;52.286;20.930;2022-07-29T02:34:04;100816.81;;;16.33;76.20
30724;BME280;17473;52.286;20.930;2022-07-29T02:36:33;100824.94;;;16.40;75.78
30724;BME280;17473;52.286;20.930;2022-07-29T02:39:03;100824.09;;;16.43;75.70
30724;BME280;17473;52.286;20.930;2022-07-29T02:41:44;100821.38;;;16.41;75.72
30724;BME280;17473;52.286;20.930;2022-07-29T02:44:15;100822.47;;;16.53;75.36
30724;BME280;17473;52.286;20.930;2022-07-29T02:47:18;100821.28;;;16.37;75.97
30724;BME280;17473;52.286;20.930;2022-07-29T02:50:00;100820.19;;;16.22;76.94
30724;BME280;17473;52.286;20.930;2022-07-29T02:52:55;100819.47;;;16.34;76.30
30724;BME280;17473;52.286;20.930;2022-07-29T02:58:27;100832.72;;;16.30;76.80
30724;BME280;17473;52.286;20.930;2022-07-29T03:01:02;100825.97;;;16.49;75.96
30724;BME280;17473;52.286;20.930;2022-07-29T03:03:36;100825.81;;;16.39;76.57
30724;BME280;17473;52.286;20.930;2022-07-29T03:06:05;100831.94;;;16.35;76.66
30724;BME280;17473;52.286;20.930;2022-07-29T03:08:34;100837.03;;;16.23;77.42
30724;BME280;17473;52.286;20.930;2022-07-29T03:11:02;100831.75;;;16.24;77.42
30724;BME280;17473;52.286;20.930;2022-07-29T03:13:30;100824.72;;;16.28;77.37
30724;BME280;17473;52.286;20.930;2022-07-29T03:15:58;100823.88;;;16.32;77.08
30724;BME280;17473;52.286;20.930;2022-07-29T03:18:25;100829.13;;;16.27;77.62
30724;BME280;17473;52.286;20.930;2022-07-29T03:20:53;100831.06;;;16.36;77.32
30724;BME280;17473;52.286;20.930;2022-07-29T03:23:21;100831.13;;;16.39;77.44
30724;BME280;17473;52.286;20.930;2022-07-29T03:25:50;100835.88;;;16.59;76.77
30724;BME280;17473;52.286;20.930;2022-07-29T03:28:17;100843.19;;;16.71;76.47
30724;BME280;17473;52.286;20.930;2022-07-29T03:30:45;100841.66;;;16.87;75.92
30724;BME280;17473;52.286;20.930;2022-07-29T03:33:13;100843.13;;;17.26;74.59
30724;BME280;17473;52.286;20.930;2022-07-29T03:35:40;100847.03;;;17.53;73.35
30724;BME280;17473;52.286;20.930;2022-07-29T03:38:08;100839.53;;;17.95;71.83
30724;BME280;17473;52.286;20.930;2022-07-29T03:41:09;100838.38;;;18.59;69.27
30724;BME280;17473;52.286;20.930;2022-07-29T03:43:38;100833.59;;;19.57;65.13
30724;BME280;17473;52.286;20.930;2022-07-29T03:46:16;100823.97;;;20.21;62.37
30724;BME280;17473;52.286;20.930;2022-07-29T03:48:48;100823.97;;;20.69;60.32
30724;BME280;17473;52.286;20.930;2022-07-29T03:51:17;100833.81;;;20.90;59.15
30724;BME280;17473;52.286;20.930;2022-07-29T03:54:03;100839.88;;;21.57;57.05
30724;BME280;17473;52.286;20.930;2022-07-29T03:56:40;100832.94;;;22.63;54.13
30724;BME280;17473;52.286;20.930;2022-07-29T03:59:09;100836.22;;;22.95;53.21
30724;BME280;17473;52.286;20.930;2022-07-29T04:01:38;100840.97;;;23.55;51.12
30724;BME280;17473;52.286;20.930;2022-07-29T04:04:06;100830.16;;;24.24;48.89
30724;BME280;17473;52.286;20.930;2022-07-29T04:06:45;100839.66;;;24.98;47.13
30724;BME280;17473;52.286;20.930;2022-07-29T04:09:14;100838.31;;;25.23;46.37
30724;BME280;17473;52.286;20.930;2022-07-29T04:11:42;100841.34;;;25.53;45.08
30724;BME280;17473;52.286;20.930;2022-07-29T04:14:30;100830.88;;;25.78;44.96
30724;BME280;17473;52.286;20.930;2022-07-29T04:16:57;100834.66;;;26.12;43.91
30724;BME280;17473;52.286;20.930;2022-07-29T04:19:24;100836.31;;;27.56;41.34
30724;BME280;17473;52.286;20.930;2022-07-29T04:21:52;100830.47;;;28.28;39.59
30724;BME280;17473;52.286;20.930;2022-07-29T04:24:19;100834.53;;;28.95;38.07
30724;BME280;17473;52.286;20.930;2022-07-29T04:26:47;100834.56;;;29.19;37.55
30724;BME280;17473;52.286;20.930;2022-07-29T04:29:14;100840.59;;;29.52;36.87
30724;BME280;17473;52.286;20.930;2022-07-29T04:31:42;100839.28;;;30.10;36.36
30724;BME280;17473;52.286;20.930;2022-07-29T04:34:10;100837.66;;;31.14;34.04
30724;BME280;17473;52.286;20.930;2022-07-29T04:36:37;100835.94;;;31.51;33.76
30724;BME280;17473;52.286;20.930;2022-07-29T04:39:04;100834.69;;;32.16;32.37
30724;BME280;17473;52.286;20.930;2022-07-29T04:41:31;100839.75;;;33.31;30.91
30724;BME280;17473;52.286;20.930;2022-07-29T04:44:00;100835.78;;;33.03;30.66
30724;BME280;17473;52.286;20.930;2022-07-29T04:46:38;100833.00;;;33.20;30.51
30724;BME280;17473;52.286;20.930;2022-07-29T04:49:05;100841.06;;;33.41;30.06
30724;BME280;17473;52.286;20.930;2022-07-29T04:51:33;100829.66;;;33.49;30.07
30724;BME280;17473;52.286;20.930;2022-07-29T04:54:00;100840.63;;;33.98;29.59
30724;BME280;17473;52.286;20.930;2022-07-29T04:56:27;100836.31;;;35.32;27.79
30724;BME280;17473;52.286;20.930;2022-07-29T04:58:57;100838.25;;;36.02;26.98
30724;BME280;17473;52.286;20.930;2022-07-29T05:01:24;100837.50;;;35.42;27.58
30724;BME280;17473;52.286;20.930;2022-07-29T05:03:51;100832.22;;;35.54;27.20
30724;BME280;17473;52.286;20.930;2022-07-29T05:06:22;100841.88;;;35.16;27.61
30724;BME280;17473;52.286;20.930;2022-07-29T05:08:49;100836.50;;;36.29;26.27
30724;BME280;17473;52.286;20.930;2022-07-29T05:11:16;100838.41;;;36.81;25.73
30724;BME280;17473;52.286;20.930;2022-07-29T05:13:48;100840.28;;;36.68;25.89
30724;BME280;17473;52.286;20.930;2022-07-29T05:16:15;100842.13;;;36.40;25.74
30724;BME280;17473;52.286;20.930;2022-07-29T05:18:42;100840.63;;;37.80;24.29
30724;BME280;17473;52.286;20.930;2022-07-29T05:21:09;100839.25;;;38.60;23.80
30724;BME280;17473;52.286;20.930;2022-07-29T05:23:36;100831.97;;;38.59;23.27
30724;BME280;17473;52.286;20.930;2022-07-29T05:26:03;100847.06;;;39.02;23.17
30724;BME280;17473;52.286;20.930;2022-07-29T05:28:34;100849.38;;;39.42;22.54
30724;BME280;17473;52.286;20.930;2022-07-29T05:31:01;100838.25;;;39.78;22.07
30724;BME280;17473;52.286;20.930;2022-07-29T05:33:29;100835.81;;;39.96;22.09
30724;BME280;17473;52.286;20.930;2022-07-29T05:36:04;100849.06;;;39.81;22.21
30724;BME280;17473;52.286;20.930;2022-07-29T05:38:34;100843.50;;;39.35;22.17
30724;BME280;17473;52.286;20.930;2022-07-29T05:41:04;100845.19;;;40.27;21.37
30724;BME280;17473;52.286;20.930;2022-07-29T05:43:32;100845.00;;;39.28;22.31
30724;BME280;17473;52.286;20.930;2022-07-29T05:45:59;100841.00;;;39.32;21.83
30724;BME280;17473;52.286;20.930;2022-07-29T05:48:26;100833.59;;;39.78;21.51
30724;BME280;17473;52.286;20.930;2022-07-29T05:50:53;100831.66;;;39.22;21.87
30724;BME280;17473;52.286;20.930;2022-07-29T05:53:21;100830.81;;;39.78;21.39
30724;BME280;17473;52.286;20.930;2022-07-29T05:55:48;100827.69;;;39.60;21.42
30724;BME280;17473;52.286;20.930;2022-07-29T05:58:16;100828.56;;;39.60;21.88
30724;BME280;17473;52.286;20.930;2022-07-29T06:00:43;100832.63;;;40.12;20.79
30724;BME280;17473;52.286;20.930;2022-07-29T06:03:10;100832.81;;;39.87;21.35
30724;BME280;17473;52.286;20.930;2022-07-29T06:05:37;100828.97;;;40.66;20.31
30724;BME280;17473;52.286;20.930;2022-07-29T06:08:05;100833.97;;;39.85;21.12
30724;BME280;17473;52.286;20.930;2022-07-29T06:10:35;100834.44;;;39.67;20.88
30724;BME280;17473;52.286;20.930;2022-07-29T06:13:03;100836.06;;;40.48;20.43
30724;BME280;17473;52.286;20.930;2022-07-29T06:15:30;100832.59;;;40.34;20.35
30724;BME280;17473;52.286;20.930;2022-07-29T06:17:57;100828.03;;;41.20;19.92
30724;BME280;17473;52.286;20.930;2022-07-29T06:20:31;100828.13;;;41.80;19.53
30724;BME280;17473;52.286;20.930;2022-07-29T06:22:59;100825.06;;;42.53;18.29
30724;BME280;17473;52.286;20.930;2022-07-29T06:25:27;100826.53;;;42.48;18.57
30724;BME280;17473;52.286;20.930;2022-07-29T06:27:57;100825.19;;;42.62;18.17
30724;BME280;17473;52.286;20.930;2022-07-29T06:30:24;100811.63;;;40.53;19.60
30724;BME280;17473;52.286;20.930;2022-07-29T06:32:52;100818.59;;;40.47;19.87
30724;BME280;17473;52.286;20.930;2022-07-29T06:35:19;100821.28;;;41.12;19.26
30724;BME280;17473;52.286;20.930;2022-07-29T06:38:06;100824.59;;;41.06;19.69
30724;BME280;17473;52.286;20.930;2022-07-29T06:40:53;100824.84;;;40.49;19.82
30724;BME280;17473;52.286;20.930;2022-07-29T06:43:36;100827.00;;;40.46;20.13
30724;BME280;17473;52.286;20.930;2022-07-29T06:46:20;100828.75;;;41.22;18.90
30724;BME280;17473;52.286;20.930;2022-07-29T06:48:48;100817.63;;;41.12;19.30
30724;BME280;17473;52.286;20.930;2022-07-29T06:51:15;100826.69;;;41.86;18.64
30724;BME280;17473;52.286;20.930;2022-07-29T06:53:51;100822.72;;;41.69;19.21
30724;BME280;17473;52.286;20.930;2022-07-29T06:56:33;100824.81;;;39.39;20.88
30724;BME280;17473;52.286;20.930;2022-07-29T06:59:07;100830.16;;;40.74;19.63
30724;BME280;17473;52.286;20.930;2022-07-29T07:01:40;100833.63;;;41.39;18.92
30724;BME280;17473;52.286;20.930;2022-07-29T07:04:09;100835.19;;;40.15;20.28
30724;BME280;17473;52.286;20.930;2022-07-29T07:06:37;100817.84;;;40.01;20.12
30724;BME280;17473;52.286;20.930;2022-07-29T07:09:05;100813.13;;;40.57;19.29
30724;BME280;17473;52.286;20.930;2022-07-29T07:11:32;100830.06;;;39.87;20.21
30724;BME280;17473;52.286;20.930;2022-07-29T07:14:00;100821.13;;;38.69;21.20
30724;BME280;17473;52.286;20.930;2022-07-29T07:16:40;100823.91;;;39.50;20.87
30724;BME280;17473;52.286;20.930;2022-07-29T07:19:08;100827.66;;;39.94;20.25
30724;BME280;17473;52.286;20.930;2022-07-29T07:21:35;100823.16;;;39.48;20.83
30724;BME280;17473;52.286;20.930;2022-07-29T07:24:02;100812.63;;;39.41;21.05
30724;BME280;17473;52.286;20.930;2022-07-29T07:26:29;100816.16;;;39.78;20.63
30724;BME280;17473;52.286;20.930;2022-07-29T07:28:57;100822.53;;;39.89;20.56
30724;BME280;17473;52.286;20.930;2022-07-29T07:31:24;100829.31;;;39.51;20.91
30724;BME280;17473;52.286;20.930;2022-07-29T07:33:51;100825.09;;;39.00;21.22
30724;BME280;17473;52.286;20.930;2022-07-29T07:36:20;100827.91;;;39.45;21.00
30724;BME280;17473;52.286;20.930;2022-07-29T07:38:47;100816.78;;;38.42;22.06
30724;BME280;17473;52.286;20.930;2022-07-29T07:41:14;100829.03;;;39.20;21.99
30724;BME280;17473;52.286;20.930;2022-07-29T07:43:41;100819.13;;;37.98;22.85
30724;BME280;17473;52.286;20.930;2022-07-29T07:46:09;100820.28;;;39.49;21.29
30724;BME280;17473;52.286;20.930;2022-07-29T07:48:36;100819.00;;;40.43;20.57
30724;BME280;17473;52.286;20.930;2022-07-29T07:51:03;100814.59;;;39.96;20.59
30724;BME280;17473;52.286;20.930;2022-07-29T07:53:30;100825.06;;;39.70;20.62
30724;BME280;17473;52.286;20.930;2022-07-29T07:55:58;100818.25;;;39.51;20.84
30724;BME280;17473;52.286;20.930;2022-07-29T07:58:37;100821.34;;;39.01;21.24
30724;BME280;17473;52.286;20.930;2022-07-29T08:01:05;100829.03;;;38.00;22.60
30724;BME280;17473;52.286;20.930;2022-07-29T08:03:33;100814.31;;;38.61;22.35
30724;BME280;17473;52.286;20.930;2022-07-29T08:06:00;100828.97;;;37.89;22.50
30724;BME280;17473;52.286;20.930;2022-07-29T08:08:27;100828.22;;;37.87;22.73
30724;BME280;17473;52.286;20.930;2022-07-29T08:10:54;100825.81;;;38.31;22.74
30724;BME280;17473;52.286;20.930;2022-07-29T08:13:31;100829.31;;;37.71;23.04
30724;BME280;17473;52.286;20.930;2022-07-29T08:15:59;100809.69;;;39.09;21.65
30724;BME280;17473;52.286;20.930;2022-07-29T08:18:40;100823.38;;;38.99;21.68
30724;BME280;17473;52.286;20.930;2022-07-29T08:21:07;100820.22;;;37.32;23.34
30724;BME280;17473;52.286;20.930;2022-07-29T08:23:35;100822.47;;;36.74;24.17
30724;BME280;17473;52.286;20.930;2022-07-29T08:26:16;100812.06;;;36.92;24.04
30724;BME280;17473;52.286;20.930;2022-07-29T08:28:45;100810.78;;;36.30;24.61
30724;BME280;17473;52.286;20.930;2022-07-29T08:31:13;100809.84;;;35.75;25.12
30724;BME280;17473;52.286;20.930;2022-07-29T08:33:41;100817.97;;;36.73;24.27
30724;BME280;17473;52.286;20.930;2022-07-29T08:36:08;100802.22;;;36.62;24.05
30724;BME280;17473;52.286;20.930;2022-07-29T08:38:36;100809.28;;;36.11;24.78
30724;BME280;17473;52.286;20.930;2022-07-29T08:41:03;100802.81;;;35.41;25.63
30724;BME280;17473;52.286;20.930;2022-07-29T08:43:30;100798.31;;;35.55;25.09
30724;BME280;17473;52.286;20.930;2022-07-29T08:45:57;100826.50;;;35.71;24.88
30724;BME280;17473;52.286;20.930;2022-07-29T08:48:25;100797.00;;;34.72;25.98
30724;BME280;17473;52.286;20.930;2022-07-29T08:50:56;100822.25;;;34.00;26.53
30724;BME280;17473;52.286;20.930;2022-07-29T08:53:26;100813.06;;;34.64;26.22
30724;BME280;17473;52.286;20.930;2022-07-29T08:55:54;100821.22;;;35.25;25.75
30724;BME280;17473;52.286;20.930;2022-07-29T08:58:22;100815.16;;;35.05;26.25
30724;BME280;17473;52.286;20.930;2022-07-29T09:00:55;100816.00;;;35.93;24.76
30724;BME280;17473;52.286;20.930;2022-07-29T09:03:30;100817.75;;;34.15;26.45
30724;BME280;17473;52.286;20.930;2022-07-29T09:06:02;100801.13;;;34.79;25.68
30724;BME280;17473;52.286;20.930;2022-07-29T09:08:32;100811.72;;;33.93;26.72
30724;BME280;17473;52.286;20.930;2022-07-29T09:11:01;100807.53;;;33.69;27.27
30724;BME280;17473;52.286;20.930;2022-07-29T09:13:31;100797.94;;;34.10;26.55
30724;BME280;17473;52.286;20.930;2022-07-29T09:15:58;100802.56;;;33.11;27.57
30724;BME280;17473;52.286;20.930;2022-07-29T09:18:40;100794.19;;;34.43;26.15
30724;BME280;17473;52.286;20.930;2022-07-29T09:21:11;100795.28;;;33.27;27.06
30724;BME280;17473;52.286;20.930;2022-07-29T09:26:42;100798.81;;;32.96;26.33
30724;BME280;17473;52.286;20.930;2022-07-29T09:29:22;100798.63;;;32.63;27.06
30724;BME280;17473;52.286;20.930;2022-07-29T09:31:52;100808.03;;;31.84;28.32
30724;BME280;17473;52.286;20.930;2022-07-29T09:34:26;100791.88;;;32.16;27.47
30724;BME280;17473;52.286;20.930;2022-07-29T09:36:55;100792.28;;;31.32;29.23
30724;BME280;17473;52.286;20.930;2022-07-29T09:39:35;100795.00;;;32.45;27.84
30724;BME280;17473;52.286;20.930;2022-07-29T09:42:06;100793.94;;;30.95;28.61
30724;BME280;17473;52.286;20.930;2022-07-29T09:44:50;100794.88;;;30.53;29.16
30724;BME280;17473;52.286;20.930;2022-07-29T09:47:18;100794.03;;;30.30;29.06
30724;BME280;17473;52.286;20.930;2022-07-29T09:49:58;100786.41;;;30.38;29.20
30724;BME280;17473;52.286;20.930;2022-07-29T09:52:28;100787.03;;;30.01;30.54
30724;BME280;17473;52.286;20.930;2022-07-29T09:55:07;100786.94;;;29.58;30.50
30724;BME280;17473;52.286;20.930;2022-07-29T09:57:35;100780.13;;;30.36;29.73
30724;BME280;17473;52.286;20.930;2022-07-29T10:00:15;100786.84;;;30.05;30.55
30724;BME280;17473;52.286;20.930;2022-07-29T10:02:44;100781.50;;;30.69;29.83
30724;BME280;17473;52.286;20.930;2022-07-29T10:05:21;100779.09;;;30.82;29.99
30724;BME280;17473;52.286;20.930;2022-07-29T10:07:54;100777.59;;;30.54;30.23
30724;BME280;17473;52.286;20.930;2022-07-29T10:10:27;100779.00;;;30.42;30.97
30724;BME280;17473;52.286;20.930;2022-07-29T10:12:58;100773.47;;;29.77;31.50
30724;BME280;17473;52.286;20.930;2022-07-29T10:15:37;100760.50;;;29.38;32.51
30724;BME280;17473;52.286;20.930;2022-07-29T10:18:07;100768.97;;;29.04;32.54
30724;BME280;17473;52.286;20.930;2022-07-29T10:20:35;100770.81;;;29.28;31.73
30724;BME280;17473;52.286;20.930;2022-07-29T10:23:02;100768.47;;;29.42;31.30
30724;BME280;17473;52.286;20.930;2022-07-29T10:25:30;100770.59;;;29.34;31.68
30724;BME280;17473;52.286;20.930;2022-07-29T10:27:57;100764.81;;;28.94;32.13
30724;BME280;17473;52.286;20.930;2022-07-29T10:30:26;100768.56;;;29.15;31.96
30724;BME280;17473;52.286;20.930;2022-07-29T10:33:24;100771.00;;;28.74;32.17
30724;BME280;17473;52.286;20.930;2022-07-29T10:42:21;100753.31;;;30.70;29.44
30724;BME280;17473;52.286;20.930;2022-07-29T10:45:02;100746.88;;;31.50;28.32
30724;BME280;17473;52.286;20.930;2022-07-29T10:47:30;100762.19;;;31.15;28.48
30724;BME280;17473;52.286;20.930;2022-07-29T10:50:04;100755.66;;;30.78;28.37
30724;BME280;17473;52.286;20.930;2022-07-29T10:52:54;100745.22;;;30.46;29.25
30724;BME280;17473;52.286;20.930;2022-07-29T10:55:38;100749.59;;;30.91;28.75
30724;BME280;17473;52.286;20.930;2022-07-29T11:00:50;100744.94;;;29.41;30.18
30724;BME280;17473;52.286;20.930;2022-07-29T11:03:47;100735.75;;;29.67;30.43
30724;BME280;17473;52.286;20.930;2022-07-29T11:06:18;100745.25;;;30.67;29.54
30724;BME280;17473;52.286;20.930;2022-07-29T11:09:19;100744.94;;;30.32;29.35
30724;BME280;17473;52.286;20.930;2022-07-29T11:12:01;100741.28;;;29.88;29.53
30724;BME280;17473;52.286;20.930;2022-07-29T11:14:58;100732.25;;;30.53;29.39
30724;BME280;17473;52.286;20.930;2022-07-29T11:17:26;100745.34;;;29.54;29.82
30724;BME280;17473;52.286;20.930;2022-07-29T11:20:44;100738.09;;;29.31;30.18
30724;BME280;17473;52.286;20.930;2022-07-29T11:23:32;100738.03;;;29.56;29.73
30724;BME280;17473;52.286;20.930;2022-07-29T11:26:15;100734.16;;;29.14;30.39
30724;BME280;17473;52.286;20.930;2022-07-29T11:31:43;100728.63;;;28.94;30.71
30724;BME280;17473;52.286;20.930;2022-07-29T11:34:31;100722.97;;;29.47;30.45
30724;BME280;17473;52.286;20.930;2022-07-29T11:45:16;100726.38;;;29.29;29.87
30724;BME280;17473;52.286;20.930;2022-07-29T11:48:04;100710.34;;;29.69;29.66
30724;BME280;17473;52.286;20.930;2022-07-29T11:50:53;100709.84;;;29.35;29.35
30724;BME280;17473;52.286;20.930;2022-07-29T11:53:23;100711.09;;;29.26;29.37
30724;BME280;17473;52.286;20.930;2022-07-29T11:55:55;100713.72;;;29.28;30.19
30724;BME280;17473;52.286;20.930;2022-07-29T11:58:24;100708.16;;;29.32;30.30
30724;BME280;17473;52.286;20.930;2022-07-29T12:00:52;100707.28;;;29.30;30.30
30724;BME280;17473;52.286;20.930;2022-07-29T12:03:27;100716.06;;;29.15;30.98
30724;BME280;17473;52.286;20.930;2022-07-29T12:06:15;100717.09;;;29.11;30.79
30724;BME280;17473;52.286;20.930;2022-07-29T12:08:44;100696.63;;;28.51;31.37
30724;BME280;17473;52.286;20.930;2022-07-29T12:11:19;100712.38;;;29.16;31.05
30724;BME280;17473;52.286;20.930;2022-07-29T12:13:50;100707.97;;;29.37;30.56
30724;BME280;17473;52.286;20.930;2022-07-29T12:16:21;100714.97;;;29.19;30.60
30724;BME280;17473;52.286;20.930;2022-07-29T12:19:00;100720.00;;;28.30;32.00
30724;BME280;17473;52.286;20.930;2022-07-29T12:24:25;100718.00;;;27.80;33.37
30724;BME280;17473;52.286;20.930;2022-07-29T12:26:59;100721.88;;;27.73;33.00
30724;BME280;17473;52.286;20.930;2022-07-29T12:29:26;100704.91;;;27.94;33.15
30724;BME280;17473;52.286;20.930;2022-07-29T12:32:02;100709.00;;;28.60;31.33
30724;BME280;17473;52.286;20.930;2022-07-29T12:34:31;100707.09;;;28.87;31.16
30724;BME280;17473;52.286;20.930;2022-07-29T12:36:59;100705.97;;;28.17;31.88
30724;BME280;17473;52.286;20.930;2022-07-29T12:39:26;100700.63;;;27.59;32.49
30724;BME280;17473;52.286;20.930;2022-07-29T12:41:55;100698.00;;;27.84;32.44
30724;BME280;17473;52.286;20.930;2022-07-29T12:44:50;100694.50;;;27.80;32.47
30724;BME280;17473;52.286;20.930;2022-07-29T12:47:19;100696.84;;;27.91;32.53
30724;BME280;17473;52.286;20.930;2022-07-29T12:49:48;100691.56;;;27.60;32.87
30724;BME280;17473;52.286;20.930;2022-07-29T12:52:34;100695.56;;;28.03;32.43
30724;BME280;17473;52.286;20.930;2022-07-29T12:55:01;100697.59;;;27.96;32.59
30724;BME280;17473;52.286;20.930;2022-07-29T12:57:29;100697.63;;;27.95;32.62
30724;BME280;17473;52.286;20.930;2022-07-29T13:00:11;100698.00;;;28.38;32.21
30724;BME280;17473;52.286;20.930;2022-07-29T13:02:41;100690.38;;;28.49;31.34
30724;BME280;17473;52.286;20.930;2022-07-29T13:05:10;100703.44;;;28.38;31.16
30724;BME280;17473;52.286;20.930;2022-07-29T13:07:38;100694.72;;;28.55;30.85
30724;BME280;17473;52.286;20.930;2022-07-29T13:10:23;100694.28;;;28.15;31.49
30724;BME280;17473;52.286;20.930;2022-07-29T13:13:09;100696.63;;;28.26;31.37
30724;BME280;17473;52.286;20.930;2022-07-29T13:15:39;100674.69;;;27.78;32.13
30724;BME280;17473;52.286;20.930;2022-07-29T13:18:31;100674.63;;;28.08;32.34
30724;BME280;17473;52.286;20.930;2022-07-29T13:21:12;100674.22;;;27.36;32.90
30724;BME280;17473;52.286;20.930;2022-07-29T13:23:40;100675.44;;;27.84;32.78
30724;BME280;17473;52.286;20.930;2022-07-29T13:26:11;100680.81;;;27.57;33.20
30724;BME280;17473;52.286;20.930;2022-07-29T13:28:38;100671.72;;;27.58;32.49
30724;BME280;17473;52.286;20.930;2022-07-29T13:31:10;100660.19;;;27.79;32.45
30724;BME280;17473;52.286;20.930;2022-07-29T13:33:37;100675.66;;;27.49;32.15
30724;BME280;17473;52.286;20.930;2022-07-29T13:36:04;100665.81;;;27.45;32.72
30724;BME280;17473;52.286;20.930;2022-07-29T13:38:31;100644.47;;;27.62;33.06
30724;BME280;17473;52.286;20.930;2022-07-29T13:40:58;100660.44;;;27.99;32.90
30724;BME280;17473;52.286;20.930;2022-07-29T13:43:26;100661.44;;;28.48;32.18
30724;BME280;17473;52.286;20.930;2022-07-29T13:45:53;100661.66;;;28.67;31.46